createdAt,value
2023-02-05T00:01:35.684Z,79.10
2023-02-05T00:04:03.117Z,79.20
2023-02-05T00:06:30.261Z,79.10
2023-02-05T00:08:57.847Z,78.90
2023-02-05T00:11:25.088Z,79.00
2023-02-05T00:13:52.183Z,79.10
2023-02-05T00:16:21.106Z,79.00
2023-02-05T00:18:48.422Z,79.20
2023-02-05T00:21:16.278Z,79.40
2023-02-05T00:23:43.495Z,79.70
2023-02-05T00:26:13.469Z,79.70
2023-02-05T00:28:41.591Z,79.90
2023-02-05T00:31:11.565Z,80.10
2023-02-05T00:33:39.195Z,80.20
2023-02-05T00:36:06.798Z,80.50
2023-02-05T00:38:33.702Z,80.70
2023-02-05T00:41:00.730Z,80.80
2023-02-05T00:43:27.833Z,80.80
2023-02-05T00:45:55.218Z,81.10
2023-02-05T00:48:22.763Z,81.10
2023-02-05T00:50:51.026Z,81.20
2023-02-05T00:53:19.450Z,82.10
2023-02-05T00:55:46.438Z,81.40
2023-02-05T00:58:13.345Z,81.50
2023-02-05T01:00:40.385Z,81.60
2023-02-05T01:03:07.772Z,81.60
2023-02-05T01:05:36.133Z,81.60
2023-02-05T01:08:04.020Z,81.70
2023-02-05T01:10:31.248Z,81.80
2023-02-05T01:12:58.248Z,81.90
2023-02-05T01:15:25.502Z,81.90
2023-02-05T01:17:52.826Z,82.10
2023-02-05T01:20:20.490Z,82.10
2023-02-05T01:22:47.686Z,82.20
2023-02-05T01:25:15.490Z,82.40
2023-02-05T01:27:42.625Z,82.50
2023-02-05T01:30:11.902Z,82.50
2023-02-05T01:32:40.567Z,82.50
2023-02-05T01:35:08.660Z,82.60
2023-02-05T01:37:35.714Z,82.60
2023-02-05T01:40:04.249Z,82.60
2023-02-05T01:42:32.769Z,82.60
2023-02-05T01:45:21.499Z,82.60
2023-02-05T01:47:50.062Z,82.60
2023-02-05T01:50:21.858Z,82.50
2023-02-05T01:52:49.410Z,82.50
2023-02-05T01:55:16.811Z,82.50
2023-02-05T01:57:44.213Z,82.50
2023-02-05T02:00:12.027Z,82.70
2023-02-05T02:02:42.476Z,82.90
2023-02-05T02:05:13.171Z,83.00
2023-02-05T02:07:40.709Z,83.20
2023-02-05T02:10:10.070Z,83.20
2023-02-05T02:12:39.509Z,83.40
2023-02-05T02:15:11.338Z,83.50
2023-02-05T02:17:41.345Z,83.60
2023-02-05T02:20:15.857Z,83.50
2023-02-05T02:22:48.574Z,83.50
2023-02-05T02:25:34.243Z,83.50
2023-02-05T02:28:29.456Z,84.30
2023-02-05T02:31:10.285Z,83.50
2023-02-05T02:33:48.262Z,83.50
2023-02-05T02:36:36.264Z,83.60
2023-02-05T02:39:18.034Z,83.50
2023-02-05T02:42:15.582Z,83.40
2023-02-05T02:44:52.605Z,83.40
2023-02-05T02:47:24.507Z,83.30
2023-02-05T02:50:00.002Z,83.10
2023-02-05T02:52:29.728Z,83.00
2023-02-05T02:55:00.703Z,83.00
2023-02-05T02:57:29.290Z,83.00
2023-02-05T03:00:01.248Z,82.90
2023-02-05T03:02:32.876Z,82.80
2023-02-05T03:05:05.348Z,82.60
2023-02-05T03:07:38.248Z,82.50
2023-02-05T03:10:32.897Z,82.40
2023-02-05T03:13:00.186Z,82.50
2023-02-05T03:15:28.189Z,82.40
2023-02-05T03:17:56.274Z,82.30
2023-02-05T03:20:29.887Z,82.50
2023-02-05T03:22:57.156Z,82.50
2023-02-05T03:25:27.963Z,82.50
2023-02-05T03:27:58.261Z,82.50
2023-02-05T03:30:57.690Z,82.70
2023-02-05T03:33:36.831Z,82.70
2023-02-05T03:36:26.717Z,82.80
2023-02-05T03:39:11.938Z,83.60
2023-02-05T03:41:56.296Z,82.90
2023-02-05T03:44:44.721Z,82.90
2023-02-05T03:47:57.048Z,82.90
2023-02-05T03:50:40.023Z,83.10
2023-02-05T03:53:28.967Z,83.10
2023-02-05T03:56:05.401Z,83.10
2023-02-05T03:58:40.434Z,83.20
2023-02-05T04:01:11.657Z,83.30
2023-02-05T04:03:39.658Z,83.20
2023-02-05T04:06:08.031Z,83.10
2023-02-05T04:08:35.383Z,83.00
2023-02-05T04:11:03.234Z,82.90
2023-02-05T04:13:30.407Z,82.70
2023-02-05T04:15:58.345Z,82.60
2023-02-05T04:18:25.383Z,82.50
2023-02-05T04:20:53.933Z,82.40
2023-02-05T04:23:24.415Z,82.30
2023-02-05T04:25:55.972Z,82.20
2023-02-05T04:28:43.163Z,82.20
2023-02-05T04:31:15.125Z,82.20
2023-02-05T04:33:43.597Z,82.10
2023-02-05T04:36:14.404Z,82.00
2023-02-05T04:38:41.506Z,82.00
2023-02-05T04:41:08.987Z,82.00
2023-02-05T04:43:36.284Z,82.00
2023-02-05T04:46:07.943Z,82.00
2023-02-05T04:48:35.798Z,82.10
2023-02-05T04:51:10.758Z,82.00
2023-02-05T04:53:38.398Z,82.00
2023-02-05T04:56:10.947Z,82.00
2023-02-05T04:58:38.529Z,81.80
2023-02-05T05:01:10.936Z,81.70
2023-02-05T05:03:37.914Z,81.80
2023-02-05T05:06:06.308Z,81.90
2023-02-05T05:08:33.783Z,81.80
2023-02-05T05:11:06.375Z,81.90
2023-02-05T05:13:35.431Z,81.90
2023-02-05T05:16:03.219Z,81.70
2023-02-05T05:18:30.304Z,81.70
2023-02-05T05:20:57.645Z,81.70
2023-02-05T05:23:24.894Z,81.60
2023-02-05T05:25:51.959Z,81.60
2023-02-05T05:28:19.320Z,81.60
2023-02-05T05:30:46.514Z,81.60
2023-02-05T05:33:14.057Z,81.60
2023-02-05T05:35:41.373Z,81.80
2023-02-05T05:38:08.690Z,81.90
2023-02-05T05:40:54.444Z,81.80
2023-02-05T05:43:40.484Z,81.90
2023-02-05T05:46:08.692Z,81.90
2023-02-05T05:48:35.815Z,82.10
2023-02-05T05:51:03.164Z,82.80
2023-02-05T05:53:32.721Z,82.00
2023-02-05T05:55:59.892Z,82.00
2023-02-05T05:58:27.002Z,81.80
2023-02-05T06:00:54.942Z,81.50
2023-02-05T06:03:22.395Z,81.20
2023-02-05T06:05:49.560Z,81.10
2023-02-05T06:08:16.886Z,80.90
2023-02-05T06:10:44.265Z,80.90
2023-02-05T06:13:11.757Z,80.60
2023-02-05T06:15:39.431Z,80.40
2023-02-05T06:18:06.415Z,80.20
2023-02-05T06:20:33.435Z,80.00
2023-02-05T06:23:00.619Z,79.80
2023-02-05T06:25:27.886Z,79.70
2023-02-05T06:27:55.115Z,79.60
2023-02-05T06:30:22.657Z,79.50
2023-02-05T06:32:49.797Z,79.40
2023-02-05T06:35:16.916Z,79.20
2023-02-05T06:37:47.649Z,79.20
2023-02-05T06:40:18.262Z,79.20
2023-02-05T06:42:46.061Z,79.10
2023-02-05T06:45:13.154Z,79.10
2023-02-05T06:47:40.592Z,79.20
2023-02-05T06:50:08.089Z,79.10
2023-02-05T06:52:35.244Z,79.00
2023-02-05T06:55:02.364Z,78.80
2023-02-05T06:57:29.645Z,78.60
2023-02-05T06:59:56.757Z,78.30
2023-02-05T07:02:23.963Z,78.00
2023-02-05T07:04:51.067Z,77.70
2023-02-05T07:07:18.166Z,77.40
2023-02-05T07:09:45.310Z,77.20
2023-02-05T07:12:12.282Z,76.80
2023-02-05T07:14:39.980Z,76.40
2023-02-05T07:17:08.078Z,76.00
2023-02-05T07:19:36.073Z,75.70
2023-02-05T07:22:03.790Z,75.40
2023-02-05T07:24:31.150Z,75.10
2023-02-05T07:26:58.169Z,75.00
2023-02-05T07:29:25.151Z,74.60
2023-02-05T07:31:52.456Z,74.40
2023-02-05T07:34:19.743Z,74.00
2023-02-05T07:36:50.437Z,73.70
2023-02-05T07:39:17.716Z,73.30
2023-02-05T07:41:44.849Z,73.00
2023-02-05T07:44:21.656Z,72.90
2023-02-05T07:46:48.849Z,72.40
2023-02-05T07:49:15.907Z,71.50
2023-02-05T07:51:42.974Z,71.00
2023-02-05T07:54:11.159Z,70.90
2023-02-05T07:56:38.189Z,70.90
2023-02-05T07:59:06.641Z,71.10
2023-02-05T08:01:34.434Z,71.20
2023-02-05T08:04:01.662Z,71.30
2023-02-05T08:06:29.161Z,70.80
2023-02-05T08:08:56.202Z,69.70
2023-02-05T08:11:23.163Z,68.40
2023-02-05T08:13:50.084Z,67.90
2023-02-05T08:16:17.040Z,67.70
2023-02-05T08:18:48.889Z,67.70
2023-02-05T08:21:16.344Z,67.70
2023-02-05T08:23:43.324Z,67.90
2023-02-05T08:26:10.261Z,67.40
2023-02-05T08:28:37.181Z,67.10
2023-02-05T08:31:13.335Z,66.40
2023-02-05T08:33:40.458Z,65.90
2023-02-05T08:36:07.959Z,65.30
2023-02-05T08:38:34.862Z,64.80
2023-02-05T08:41:12.749Z,64.40
2023-02-05T08:43:47.772Z,64.00
2023-02-05T08:46:18.766Z,64.00
2023-02-05T08:48:46.833Z,63.70
2023-02-05T08:51:15.350Z,63.30
2023-02-05T08:53:43.039Z,62.60
2023-02-05T08:56:11.016Z,61.20
2023-02-05T08:58:39.046Z,60.90
2023-02-05T09:01:09.727Z,59.70
2023-02-05T09:03:36.945Z,59.90
2023-02-05T09:06:09.620Z,60.40
2023-02-05T09:08:36.764Z,60.20
2023-02-05T09:11:04.330Z,60.10
2023-02-05T09:13:31.343Z,59.70
2023-02-05T09:15:58.340Z,58.70
2023-02-05T09:18:26.632Z,58.00
2023-02-05T09:20:54.592Z,57.30
2023-02-05T09:23:22.483Z,56.60
2023-02-05T09:25:49.504Z,55.70
2023-02-05T09:28:16.816Z,55.70
2023-02-05T09:30:45.822Z,55.30
2023-02-05T09:33:14.263Z,54.50
2023-02-05T09:35:42.310Z,54.80
2023-02-05T09:38:12.710Z,55.00
2023-02-05T09:41:03.051Z,55.20
2023-02-05T09:43:56.143Z,55.40
2023-02-05T09:46:41.288Z,55.90
2023-02-05T09:49:18.278Z,56.50
2023-02-05T09:51:49.918Z,56.90
2023-02-05T09:54:30.226Z,57.10
2023-02-05T09:57:03.851Z,56.90
2023-02-05T09:59:32.110Z,58.10
2023-02-05T10:02:16.676Z,57.30
2023-02-05T10:04:43.915Z,56.80
2023-02-05T10:07:34.170Z,57.20
2023-02-05T10:10:22.364Z,56.90
2023-02-05T10:13:07.564Z,57.00
2023-02-05T10:16:10.812Z,56.50
2023-02-05T10:18:51.388Z,56.90
2023-02-05T10:21:24.340Z,57.20
2023-02-05T10:24:09.017Z,57.10
2023-02-05T10:26:44.827Z,57.20
2023-02-05T10:29:16.850Z,57.70
2023-02-05T10:32:07.875Z,57.70
2023-02-05T10:34:50.010Z,57.40
2023-02-05T10:37:19.473Z,57.50
2023-02-05T10:39:47.953Z,57.50
2023-02-05T10:42:41.320Z,57.80
2023-02-05T10:45:28.902Z,58.40
2023-02-05T10:48:08.030Z,59.20
2023-02-05T10:50:56.265Z,59.60
2023-02-05T10:53:25.586Z,59.70
2023-02-05T10:55:52.737Z,59.50
2023-02-05T10:59:04.609Z,59.60
2023-02-05T11:01:38.199Z,59.20
2023-02-05T11:04:19.373Z,59.40
2023-02-05T11:06:50.088Z,59.60
2023-02-05T11:09:26.118Z,60.00
2023-02-05T11:11:55.650Z,60.00
2023-02-05T11:14:31.349Z,60.30
2023-02-05T11:16:58.837Z,60.70
2023-02-05T11:19:29.130Z,60.80
2023-02-05T11:22:01.869Z,61.00
2023-02-05T11:24:41.676Z,61.90
2023-02-05T11:27:36.835Z,61.10
2023-02-05T11:30:49.670Z,61.40
2023-02-05T11:33:24.847Z,61.40
2023-02-05T11:36:05.220Z,61.60
2023-02-05T11:38:46.114Z,61.60
2023-02-05T11:41:28.772Z,61.80
2023-02-05T11:43:58.612Z,62.00
2023-02-05T11:46:28.378Z,62.20
2023-02-05T11:49:01.097Z,62.20
2023-02-05T11:51:44.659Z,62.40
2023-02-05T11:54:32.929Z,62.50
2023-02-05T11:57:19.867Z,62.20
2023-02-05T11:59:57.118Z,62.00
2023-02-05T12:02:45.552Z,61.70
2023-02-05T12:05:12.573Z,61.60
2023-02-05T12:07:54.398Z,61.30
2023-02-05T12:10:38.228Z,60.50
2023-02-05T12:13:22.838Z,60.30
2023-02-05T12:16:28.211Z,60.40
2023-02-05T12:19:15.155Z,60.10
2023-02-05T12:21:55.198Z,60.90
2023-02-05T12:25:00.163Z,61.80
2023-02-05T12:27:43.117Z,62.80
2023-02-05T12:30:15.995Z,63.40
2023-02-05T12:33:07.244Z,64.00
2023-02-05T12:35:56.175Z,64.40
2023-02-05T12:38:32.143Z,65.10
2023-02-05T12:41:17.468Z,65.90
2023-02-05T12:43:48.095Z,66.30
2023-02-05T12:46:29.510Z,66.40
2023-02-05T12:49:20.187Z,66.70
2023-02-05T12:51:56.891Z,67.10
2023-02-05T12:54:29.620Z,67.30
2023-02-05T12:56:59.541Z,67.20
2023-02-05T12:59:48.734Z,67.30
2023-02-05T13:02:41.875Z,67.50
2023-02-05T13:05:17.998Z,67.60
2023-02-05T13:08:17.684Z,67.90
2023-02-05T13:10:58.786Z,68.00
2023-02-05T13:13:33.127Z,68.10
2023-02-05T13:16:09.499Z,68.00
2023-02-05T13:18:43.039Z,68.00
2023-02-05T13:21:38.445Z,67.70
2023-02-05T13:24:41.317Z,67.60
2023-02-05T13:27:53.080Z,67.50
2023-02-05T13:30:28.178Z,67.60
2023-02-05T13:32:59.030Z,67.50
2023-02-05T13:35:28.053Z,67.80
2023-02-05T13:38:22.430Z,67.80
2023-02-05T13:40:49.188Z,67.90
2023-02-05T13:43:35.314Z,68.00
2023-02-05T13:46:15.613Z,68.10
2023-02-05T13:48:54.305Z,68.40
2023-02-05T13:51:27.126Z,68.50
2023-02-05T13:54:38.328Z,68.40
2023-02-05T13:57:13.883Z,68.50
2023-02-05T13:59:51.645Z,68.50
2023-02-05T14:02:43.456Z,68.50
2023-02-05T14:05:13.623Z,68.60
2023-02-05T14:07:50.266Z,68.50
2023-02-05T14:10:31.561Z,68.50
2023-02-05T14:13:17.492Z,68.40
2023-02-05T14:15:45.242Z,68.40
2023-02-05T14:18:33.753Z,68.50
2023-02-05T14:21:00.717Z,68.50
2023-02-05T14:23:46.479Z,68.40
2023-02-05T14:26:13.702Z,68.50
2023-02-05T14:28:46.081Z,68.60
2023-02-05T14:31:48.820Z,68.70
2023-02-05T14:34:32.581Z,68.60
2023-02-05T14:37:00.107Z,68.70
2023-02-05T14:39:32.955Z,68.80
2023-02-05T14:42:05.383Z,69.20
2023-02-05T14:44:35.370Z,69.40
2023-02-05T14:47:07.922Z,69.50
2023-02-05T14:49:40.365Z,69.80
2023-02-05T14:52:07.924Z,69.80
2023-02-05T14:54:45.703Z,69.80
2023-02-05T14:57:22.112Z,70.20
2023-02-05T14:59:56.939Z,70.50
2023-02-05T15:02:51.734Z,70.70
2023-02-05T15:05:44.803Z,71.00
2023-02-05T15:08:34.492Z,71.40
2023-02-05T15:11:34.997Z,71.80
2023-02-05T15:14:24.397Z,72.10
2023-02-05T15:17:06.598Z,72.60
2023-02-05T15:19:40.980Z,72.90
2023-02-05T15:22:38.928Z,73.20
2023-02-05T15:25:21.807Z,73.40
2023-02-05T15:28:01.609Z,73.50
2023-02-05T15:30:54.062Z,74.00
2023-02-05T15:33:34.878Z,74.10
2023-02-05T15:36:11.006Z,74.30
2023-02-05T15:39:24.502Z,74.40
2023-02-05T15:41:56.312Z,74.60
2023-02-05T15:44:32.340Z,75.20
2023-02-05T15:47:03.686Z,75.00
2023-02-05T15:49:44.229Z,74.90
2023-02-05T15:52:25.050Z,75.00
2023-02-05T15:54:57.330Z,75.10
2023-02-05T15:57:32.824Z,75.00
2023-02-05T16:00:02.302Z,74.80
2023-02-05T16:02:33.068Z,74.80
2023-02-05T16:05:18.953Z,74.90
2023-02-05T16:07:55.464Z,75.20
2023-02-05T16:10:28.196Z,75.00
2023-02-05T16:12:59.015Z,75.30
2023-02-05T16:15:33.044Z,75.40
2023-02-05T16:18:01.388Z,75.60
2023-02-05T16:20:35.510Z,75.60
2023-02-05T16:23:04.865Z,75.60
2023-02-05T16:25:34.975Z,75.90
2023-02-05T16:28:30.912Z,76.00
2023-02-05T16:30:59.962Z,76.00
2023-02-05T16:33:38.295Z,76.20
2023-02-05T16:36:15.159Z,76.30
2023-02-05T16:38:42.184Z,76.10
2023-02-05T16:41:27.332Z,76.20
2023-02-05T16:43:55.888Z,76.30
2023-02-05T16:46:27.398Z,76.30
2023-02-05T16:49:00.172Z,76.20
2023-02-05T16:51:32.636Z,76.30
2023-02-05T16:54:27.761Z,76.10
2023-02-05T16:56:59.096Z,76.30
2023-02-05T16:59:33.625Z,76.30
2023-02-05T17:02:03.200Z,76.30
2023-02-05T17:04:37.709Z,76.20
2023-02-05T17:07:15.817Z,76.50
2023-02-05T17:09:42.980Z,76.30
2023-02-05T17:12:21.890Z,76.30
2023-02-05T17:15:04.373Z,76.20
2023-02-05T17:17:32.346Z,76.20
2023-02-05T17:20:04.377Z,76.20
2023-02-05T17:22:32.033Z,76.20
2023-02-05T17:24:59.510Z,76.30
2023-02-05T17:27:32.677Z,76.30
2023-02-05T17:30:00.707Z,76.30
2023-02-05T17:32:29.380Z,76.20
2023-02-05T17:34:56.405Z,76.10
2023-02-05T17:37:23.544Z,76.20
2023-02-05T17:39:51.533Z,76.30
2023-02-05T17:42:25.970Z,76.40
2023-02-05T17:44:53.768Z,76.20
2023-02-05T17:47:20.814Z,76.30
2023-02-05T17:49:47.860Z,76.30
2023-02-05T17:52:15.676Z,77.00
2023-02-05T17:54:43.567Z,76.40
2023-02-05T17:57:19.766Z,76.40
2023-02-05T17:59:47.795Z,76.30
2023-02-05T18:02:15.493Z,76.30
2023-02-05T18:04:44.751Z,76.40
2023-02-05T18:07:28.323Z,76.50
2023-02-05T18:09:55.336Z,76.60
2023-02-05T18:12:22.352Z,76.40
2023-02-05T18:14:50.296Z,76.40
2023-02-05T18:17:17.644Z,76.60
2023-02-05T18:19:44.692Z,76.70
2023-02-05T18:22:11.814Z,76.80
2023-02-05T18:24:39.322Z,76.80
2023-02-05T18:27:08.259Z,76.80
2023-02-05T18:29:36.378Z,76.80
2023-02-05T18:32:04.339Z,76.70
2023-02-05T18:34:31.358Z,76.50
2023-02-05T18:36:58.925Z,76.30
2023-02-05T18:39:29.601Z,76.20
2023-02-05T18:41:57.195Z,76.10
2023-02-05T18:44:25.210Z,76.20
2023-02-05T18:46:52.425Z,76.20
2023-02-05T18:49:19.530Z,76.20
2023-02-05T18:51:46.465Z,76.30
2023-02-05T18:54:13.268Z,76.30
2023-02-05T18:56:40.343Z,76.30
2023-02-05T18:59:12.826Z,76.20
2023-02-05T19:01:40.593Z,76.30
2023-02-05T19:04:10.343Z,76.40
2023-02-05T19:06:39.947Z,76.30
2023-02-05T19:09:07.470Z,76.20
2023-02-05T19:11:40.682Z,76.00
2023-02-05T19:14:11.198Z,76.10
2023-02-05T19:16:39.445Z,76.20
2023-02-05T19:19:06.336Z,76.20
2023-02-05T19:21:33.242Z,76.20
2023-02-05T19:24:05.379Z,76.20
2023-02-05T19:26:32.919Z,76.10
2023-02-05T19:29:00.661Z,76.00
2023-02-05T19:31:29.812Z,76.00
2023-02-05T19:33:57.111Z,76.00
2023-02-05T19:36:24.569Z,75.80
2023-02-05T19:38:51.388Z,76.50
2023-02-05T19:41:19.612Z,75.70
2023-02-05T19:43:50.668Z,75.70
2023-02-05T19:46:27.707Z,75.60
2023-02-05T19:48:55.924Z,75.70
2023-02-05T19:51:22.930Z,75.80
2023-02-05T19:53:49.869Z,75.80
2023-02-05T19:56:18.309Z,75.80
2023-02-05T19:58:47.272Z,75.80
2023-02-05T20:01:25.115Z,76.00
2023-02-05T20:03:54.207Z,76.20
2023-02-05T20:06:23.585Z,76.20
2023-02-05T20:08:50.966Z,76.30
2023-02-05T20:11:18.632Z,76.30
2023-02-05T20:13:45.944Z,76.30
2023-02-05T20:16:18.885Z,76.30
2023-02-05T20:18:46.640Z,76.40
2023-02-05T20:21:20.616Z,76.40
2023-02-05T20:23:48.845Z,76.40
2023-02-05T20:26:22.299Z,76.60
2023-02-05T20:29:14.374Z,76.60
2023-02-05T20:31:45.921Z,76.70
2023-02-05T20:34:44.679Z,76.70
2023-02-05T20:37:11.952Z,76.90
2023-02-05T20:39:42.024Z,77.00
2023-02-05T20:42:10.740Z,77.00
2023-02-05T20:44:37.763Z,77.10
2023-02-05T20:47:07.243Z,77.20
2023-02-05T20:49:35.718Z,77.40
2023-02-05T20:52:02.928Z,77.40
2023-02-05T20:54:29.959Z,77.50
2023-02-05T20:56:59.207Z,77.50
2023-02-05T20:59:32.551Z,77.70
2023-02-05T21:02:00.332Z,77.90
2023-02-05T21:04:27.558Z,77.90
2023-02-05T21:06:54.571Z,78.00
2023-02-05T21:09:22.190Z,78.10
2023-02-05T21:11:51.113Z,78.10
2023-02-05T21:14:18.074Z,78.20
2023-02-05T21:16:45.032Z,78.20
2023-02-05T21:19:12.414Z,78.20
2023-02-05T21:21:39.973Z,78.30
2023-02-05T21:24:11.669Z,78.40
2023-02-05T21:26:41.131Z,78.50
2023-02-05T21:29:14.105Z,78.70
2023-02-05T21:31:49.149Z,78.90
2023-02-05T21:34:21.699Z,78.80
2023-02-05T21:36:50.024Z,78.90
2023-02-05T21:39:20.046Z,79.00
2023-02-05T21:41:47.930Z,79.10
2023-02-05T21:44:15.668Z,79.20
2023-02-05T21:46:43.324Z,79.40
2023-02-05T21:49:11.586Z,79.50
2023-02-05T21:51:40.136Z,79.60
2023-02-05T21:54:07.389Z,79.80
2023-02-05T21:56:40.632Z,79.90
2023-02-05T21:59:08.117Z,80.00
2023-02-05T22:01:36.777Z,80.00
2023-02-05T22:04:11.235Z,80.10
2023-02-05T22:06:39.073Z,80.20
2023-02-05T22:09:08.865Z,80.20
2023-02-05T22:11:36.811Z,80.30
2023-02-05T22:14:03.725Z,80.30
2023-02-05T22:16:32.871Z,80.40
2023-02-05T22:19:01.337Z,80.50
2023-02-05T22:21:34.194Z,80.60
2023-02-05T22:24:03.036Z,80.70
2023-02-05T22:26:32.540Z,80.80
2023-02-05T22:29:00.749Z,80.80
2023-02-05T22:31:29.024Z,80.90
2023-02-05T22:33:56.962Z,81.00
2023-02-05T22:36:26.197Z,81.00
2023-02-05T22:38:53.706Z,81.10
2023-02-05T22:41:28.991Z,81.10
2023-02-05T22:43:57.409Z,81.10
2023-02-05T22:46:27.627Z,81.10
2023-02-05T22:48:55.968Z,81.10
2023-02-05T22:51:50.922Z,81.20
2023-02-05T22:54:18.168Z,81.20
2023-02-05T22:56:45.755Z,81.10
2023-02-05T22:59:13.342Z,81.10
2023-02-05T23:01:40.300Z,81.00
2023-02-05T23:04:11.539Z,81.00
2023-02-05T23:06:41.017Z,81.10
2023-02-05T23:09:17.010Z,81.20
2023-02-05T23:11:44.675Z,82.10
2023-02-05T23:14:14.166Z,81.20
2023-02-05T23:16:43.070Z,81.30
2023-02-05T23:19:13.492Z,81.20
2023-02-05T23:21:41.741Z,81.30
2023-02-05T23:24:09.857Z,81.30
2023-02-05T23:26:42.261Z,81.40
2023-02-05T23:29:12.007Z,81.40
2023-02-05T23:31:39.235Z,81.50
2023-02-05T23:34:06.550Z,81.40
2023-02-05T23:36:33.871Z,81.50
2023-02-05T23:39:00.878Z,81.40
2023-02-05T23:41:37.128Z,81.50
2023-02-05T23:44:15.586Z,81.60
2023-02-05T23:46:43.942Z,81.60
2023-02-05T23:49:11.348Z,81.60
2023-02-05T23:51:38.575Z,81.70
2023-02-05T23:54:06.051Z,81.70
2023-02-05T23:56:33.148Z,81.80
2023-02-05T23:59:00.212Z,81.80
